Terminal Aerodrome Forecast
Issued by NWS Atlanta, GA

Home | Current Version | Previous Version | Text Only | Print | Product List | Glossary On
Versions: 1 2 3 4 5 6 7 8 9 10 11 12 13 14 15 16 17
000
FTUS42 KFFC 150500
TAFCSG
TAF
KCSG 150533Z 1506/1606 08005KT 6SM BR OVC009
     FM151500 11005KT P6SM OVC012
     FM151700 14006KT P6SM BKN025
     FM151900 19006KT P6SM VCSH SCT025 BKN040 PROB30 1520/1524 4SM
      -TSRA BKN025CB
     FM160300 VRB03KT P6SM VCSH SCT030 BKN050=

USA.gov is the U.S. government's official web portal to all federal, state and local government web resources and services.